sensor_id;sensor_type;location;lat;lon;timestamp;P1;durP1;ratioP1;P2;durP2;ratioP2
20729;SDS011;10526;50.850;12.928;2022-07-06T00:02:14;9.00;;;3.78;;
20729;SDS011;10526;50.850;12.928;2022-07-06T00:06:36;10.63;;;3.47;;
20729;SDS011;10526;50.850;12.928;2022-07-06T00:10:59;9.90;;;2.80;;
20729;SDS011;10526;50.850;12.928;2022-07-06T00:15:21;12.50;;;3.22;;
20729;SDS011;10526;50.850;12.928;2022-07-06T00:19:43;10.48;;;3.30;;
20729;SDS011;10526;50.850;12.928;2022-07-06T00:24:05;9.65;;;3.25;;
20729;SDS011;10526;50.850;12.928;2022-07-06T00:28:28;5.68;;;3.10;;
20729;SDS011;10526;50.850;12.928;2022-07-06T00:32:50;12.95;;;3.15;;
20729;SDS011;10526;50.850;12.928;2022-07-06T00:37:12;6.55;;;2.45;;
20729;SDS011;10526;50.850;12.928;2022-07-06T00:41:36;11.20;;;3.20;;
20729;SDS011;10526;50.850;12.928;2022-07-06T00:45:58;11.13;;;3.22;;
20729;SDS011;10526;50.850;12.928;2022-07-06T00:50:20;20.63;;;3.67;;
20729;SDS011;10526;50.850;12.928;2022-07-06T00:54:43;9.80;;;3.03;;
20729;SDS011;10526;50.850;12.928;2022-07-06T00:59:06;10.32;;;3.40;;
20729;SDS011;10526;50.850;12.928;2022-07-06T01:03:28;6.35;;;2.63;;
20729;SDS011;10526;50.850;12.928;2022-07-06T01:07:52;7.78;;;2.85;;
20729;SDS011;10526;50.850;12.928;2022-07-06T01:12:15;8.80;;;2.95;;
20729;SDS011;10526;50.850;12.928;2022-07-06T01:16:38;8.30;;;2.58;;
20729;SDS011;10526;50.850;12.928;2022-07-06T01:21:10;7.28;;;2.92;;
20729;SDS011;10526;50.850;12.928;2022-07-06T01:25:35;6.43;;;2.55;;
20729;SDS011;10526;50.850;12.928;2022-07-06T01:29:57;10.43;;;2.90;;
20729;SDS011;10526;50.850;12.928;2022-07-06T01:34:20;13.30;;;3.92;;
20729;SDS011;10526;50.850;12.928;2022-07-06T01:38:52;13.40;;;3.83;;
20729;SDS011;10526;50.850;12.928;2022-07-06T01:43:20;10.60;;;3.47;;
20729;SDS011;10526;50.850;12.928;2022-07-06T01:47:42;7.28;;;2.90;;
20729;SDS011;10526;50.850;12.928;2022-07-06T01:52:05;11.13;;;3.55;;
20729;SDS011;10526;50.850;12.928;2022-07-06T01:56:27;11.02;;;3.00;;
20729;SDS011;10526;50.850;12.928;2022-07-06T02:00:53;28.10;;;5.07;;
20729;SDS011;10526;50.850;12.928;2022-07-06T02:05:16;6.72;;;2.97;;
20729;SDS011;10526;50.850;12.928;2022-07-06T02:09:38;23.33;;;3.95;;
20729;SDS011;10526;50.850;12.928;2022-07-06T02:14:00;8.60;;;3.55;;
20729;SDS011;10526;50.850;12.928;2022-07-06T02:18:22;26.95;;;4.63;;
20729;SDS011;10526;50.850;12.928;2022-07-06T02:22:45;6.38;;;3.08;;
20729;SDS011;10526;50.850;12.928;2022-07-06T02:27:08;14.63;;;3.97;;
20729;SDS011;10526;50.850;12.928;2022-07-06T02:31:30;17.33;;;3.25;;
20729;SDS011;10526;50.850;12.928;2022-07-06T02:35:52;11.02;;;3.72;;
20729;SDS011;10526;50.850;12.928;2022-07-06T02:40:15;10.23;;;3.50;;
20729;SDS011;10526;50.850;12.928;2022-07-06T02:44:37;14.68;;;4.72;;
20729;SDS011;10526;50.850;12.928;2022-07-06T02:48:59;45.58;;;5.93;;
20729;SDS011;10526;50.850;12.928;2022-07-06T02:53:21;7.55;;;4.13;;
20729;SDS011;10526;50.850;12.928;2022-07-06T02:57:47;13.65;;;4.22;;
20729;SDS011;10526;50.850;12.928;2022-07-06T03:02:09;10.15;;;5.00;;
20729;SDS011;10526;50.850;12.928;2022-07-06T03:06:32;11.40;;;4.75;;
20729;SDS011;10526;50.850;12.928;2022-07-06T03:10:54;17.02;;;4.93;;
20729;SDS011;10526;50.850;12.928;2022-07-06T03:15:17;27.90;;;9.15;;
20729;SDS011;10526;50.850;12.928;2022-07-06T03:19:40;20.95;;;6.00;;
20729;SDS011;10526;50.850;12.928;2022-07-06T03:24:03;19.85;;;6.20;;
20729;SDS011;10526;50.850;12.928;2022-07-06T03:28:27;48.03;;;7.82;;
20729;SDS011;10526;50.850;12.928;2022-07-06T03:32:49;47.83;;;9.63;;
20729;SDS011;10526;50.850;12.928;2022-07-06T03:37:13;44.33;;;7.53;;
20729;SDS011;10526;50.850;12.928;2022-07-06T03:41:37;38.58;;;14.57;;
20729;SDS011;10526;50.850;12.928;2022-07-06T03:46:01;70.13;;;11.93;;
20729;SDS011;10526;50.850;12.928;2022-07-06T03:50:23;22.88;;;6.20;;
20729;SDS011;10526;50.850;12.928;2022-07-06T03:54:46;14.13;;;5.45;;
20729;SDS011;10526;50.850;12.928;2022-07-06T03:59:13;28.58;;;5.53;;
20729;SDS011;10526;50.850;12.928;2022-07-06T04:03:36;65.90;;;7.85;;
20729;SDS011;10526;50.850;12.928;2022-07-06T04:07:59;17.00;;;5.88;;
20729;SDS011;10526;50.850;12.928;2022-07-06T04:12:30;29.40;;;5.93;;
20729;SDS011;10526;50.850;12.928;2022-07-06T04:16:53;11.82;;;5.45;;
20729;SDS011;10526;50.850;12.928;2022-07-06T04:21:16;14.10;;;5.50;;
20729;SDS011;10526;50.850;12.928;2022-07-06T04:25:39;18.77;;;6.10;;
20729;SDS011;10526;50.850;12.928;2022-07-06T04:30:03;13.35;;;4.80;;
20729;SDS011;10526;50.850;12.928;2022-07-06T04:34:26;17.80;;;4.25;;
20729;SDS011;10526;50.850;12.928;2022-07-06T04:38:49;12.90;;;3.90;;
20729;SDS011;10526;50.850;12.928;2022-07-06T04:43:12;18.30;;;3.20;;
20729;SDS011;10526;50.850;12.928;2022-07-06T04:47:36;17.13;;;3.88;;
20729;SDS011;10526;50.850;12.928;2022-07-06T04:51:59;26.05;;;3.85;;
20729;SDS011;10526;50.850;12.928;2022-07-06T04:56:23;19.77;;;3.75;;
20729;SDS011;10526;50.850;12.928;2022-07-06T05:00:46;19.80;;;3.33;;
20729;SDS011;10526;50.850;12.928;2022-07-06T05:05:08;12.25;;;2.55;;
20729;SDS011;10526;50.850;12.928;2022-07-06T05:09:31;11.60;;;2.63;;
20729;SDS011;10526;50.850;12.928;2022-07-06T05:13:55;19.63;;;3.55;;
20729;SDS011;10526;50.850;12.928;2022-07-06T05:18:18;12.55;;;2.60;;
20729;SDS011;10526;50.850;12.928;2022-07-06T05:22:40;7.03;;;2.67;;
20729;SDS011;10526;50.850;12.928;2022-07-06T05:27:10;11.05;;;2.50;;
20729;SDS011;10526;50.850;12.928;2022-07-06T05:31:33;11.75;;;2.60;;
20729;SDS011;10526;50.850;12.928;2022-07-06T05:35:57;18.95;;;2.53;;
20729;SDS011;10526;50.850;12.928;2022-07-06T05:40:21;9.55;;;2.45;;
20729;SDS011;10526;50.850;12.928;2022-07-06T05:44:45;17.13;;;2.30;;
20729;SDS011;10526;50.850;12.928;2022-07-06T05:49:08;5.75;;;1.85;;
20729;SDS011;10526;50.850;12.928;2022-07-06T05:53:49;11.68;;;2.72;;
20729;SDS011;10526;50.850;12.928;2022-07-06T05:58:12;17.85;;;2.75;;
20729;SDS011;10526;50.850;12.928;2022-07-06T06:02:41;12.27;;;2.10;;
20729;SDS011;10526;50.850;12.928;2022-07-06T06:07:08;7.30;;;1.80;;
20729;SDS011;10526;50.850;12.928;2022-07-06T06:11:31;10.25;;;2.22;;
20729;SDS011;10526;50.850;12.928;2022-07-06T06:15:53;9.30;;;1.77;;
20729;SDS011;10526;50.850;12.928;2022-07-06T06:20:17;26.73;;;2.75;;
20729;SDS011;10526;50.850;12.928;2022-07-06T06:24:39;7.80;;;2.00;;
20729;SDS011;10526;50.850;12.928;2022-07-06T06:29:01;11.75;;;1.90;;
20729;SDS011;10526;50.850;12.928;2022-07-06T06:33:24;7.47;;;1.88;;
20729;SDS011;10526;50.850;12.928;2022-07-06T06:37:46;9.13;;;2.53;;
20729;SDS011;10526;50.850;12.928;2022-07-06T06:42:08;6.10;;;1.85;;
20729;SDS011;10526;50.850;12.928;2022-07-06T06:46:34;14.50;;;2.22;;
20729;SDS011;10526;50.850;12.928;2022-07-06T06:50:57;10.02;;;2.22;;
20729;SDS011;10526;50.850;12.928;2022-07-06T06:55:19;21.17;;;3.45;;
20729;SDS011;10526;50.850;12.928;2022-07-06T06:59:41;16.73;;;2.40;;
20729;SDS011;10526;50.850;12.928;2022-07-06T07:04:03;11.45;;;1.90;;
20729;SDS011;10526;50.850;12.928;2022-07-06T07:08:25;8.38;;;1.85;;
20729;SDS011;10526;50.850;12.928;2022-07-06T07:12:47;19.98;;;2.78;;
20729;SDS011;10526;50.850;12.928;2022-07-06T07:17:10;15.93;;;2.78;;
20729;SDS011;10526;50.850;12.928;2022-07-06T07:21:32;16.05;;;2.10;;
20729;SDS011;10526;50.850;12.928;2022-07-06T07:25:54;38.25;;;4.63;;
20729;SDS011;10526;50.850;12.928;2022-07-06T07:30:16;10.70;;;1.88;;
20729;SDS011;10526;50.850;12.928;2022-07-06T07:34:38;26.52;;;2.70;;
20729;SDS011;10526;50.850;12.928;2022-07-06T07:39:00;16.73;;;2.45;;
20729;SDS011;10526;50.850;12.928;2022-07-06T07:43:23;11.60;;;1.98;;
20729;SDS011;10526;50.850;12.928;2022-07-06T07:47:45;71.10;;;8.35;;
20729;SDS011;10526;50.850;12.928;2022-07-06T07:52:07;19.35;;;2.40;;
20729;SDS011;10526;50.850;12.928;2022-07-06T07:56:30;42.95;;;3.80;;
20729;SDS011;10526;50.850;12.928;2022-07-06T08:06:08;14.35;;;2.03;;
20729;SDS011;10526;50.850;12.928;2022-07-06T08:10:31;9.90;;;2.10;;
20729;SDS011;10526;50.850;12.928;2022-07-06T08:15:12;8.55;;;1.80;;
20729;SDS011;10526;50.850;12.928;2022-07-06T08:19:34;5.95;;;1.83;;
20729;SDS011;10526;50.850;12.928;2022-07-06T08:23:56;7.85;;;1.88;;
20729;SDS011;10526;50.850;12.928;2022-07-06T08:28:18;20.17;;;3.08;;
20729;SDS011;10526;50.850;12.928;2022-07-06T08:32:42;19.77;;;2.75;;
20729;SDS011;10526;50.850;12.928;2022-07-06T08:37:25;11.43;;;1.95;;
20729;SDS011;10526;50.850;12.928;2022-07-06T08:41:47;11.00;;;1.83;;
20729;SDS011;10526;50.850;12.928;2022-07-06T08:46:12;11.85;;;1.88;;
20729;SDS011;10526;50.850;12.928;2022-07-06T08:50:36;28.48;;;3.95;;
20729;SDS011;10526;50.850;12.928;2022-07-06T08:54:59;13.48;;;1.85;;
20729;SDS011;10526;50.850;12.928;2022-07-06T08:59:22;9.48;;;1.88;;
20729;SDS011;10526;50.850;12.928;2022-07-06T09:03:45;7.47;;;1.50;;
20729;SDS011;10526;50.850;12.928;2022-07-06T09:08:11;24.20;;;2.75;;
20729;SDS011;10526;50.850;12.928;2022-07-06T09:12:33;10.10;;;1.90;;
20729;SDS011;10526;50.850;12.928;2022-07-06T09:17:03;8.68;;;1.88;;
20729;SDS011;10526;50.850;12.928;2022-07-06T09:21:37;4.75;;;1.60;;
20729;SDS011;10526;50.850;12.928;2022-07-06T09:26:05;13.57;;;2.33;;
20729;SDS011;10526;50.850;12.928;2022-07-06T09:30:28;20.15;;;2.33;;
20729;SDS011;10526;50.850;12.928;2022-07-06T09:34:50;8.40;;;1.45;;
20729;SDS011;10526;50.850;12.928;2022-07-06T09:39:28;11.48;;;1.75;;
20729;SDS011;10526;50.850;12.928;2022-07-06T09:43:51;8.63;;;1.17;;
20729;SDS011;10526;50.850;12.928;2022-07-06T09:48:32;5.70;;;1.48;;
20729;SDS011;10526;50.850;12.928;2022-07-06T09:52:56;4.88;;;1.50;;
20729;SDS011;10526;50.850;12.928;2022-07-06T09:57:18;3.47;;;1.35;;
20729;SDS011;10526;50.850;12.928;2022-07-06T10:01:44;17.30;;;2.17;;
20729;SDS011;10526;50.850;12.928;2022-07-06T10:06:16;22.48;;;2.92;;
20729;SDS011;10526;50.850;12.928;2022-07-06T10:10:39;6.35;;;1.70;;
20729;SDS011;10526;50.850;12.928;2022-07-06T10:15:05;16.65;;;2.40;;
20729;SDS011;10526;50.850;12.928;2022-07-06T10:19:28;7.75;;;1.63;;
20729;SDS011;10526;50.850;12.928;2022-07-06T10:23:52;16.10;;;2.20;;
20729;SDS011;10526;50.850;12.928;2022-07-06T10:28:15;5.45;;;1.63;;
20729;SDS011;10526;50.850;12.928;2022-07-06T10:32:41;11.68;;;2.05;;
20729;SDS011;10526;50.850;12.928;2022-07-06T10:37:06;37.55;;;4.85;;
20729;SDS011;10526;50.850;12.928;2022-07-06T10:41:42;5.25;;;1.45;;
20729;SDS011;10526;50.850;12.928;2022-07-06T10:46:07;11.23;;;1.70;;
20729;SDS011;10526;50.850;12.928;2022-07-06T10:50:40;21.95;;;3.40;;
20729;SDS011;10526;50.850;12.928;2022-07-06T10:55:27;14.07;;;2.13;;
20729;SDS011;10526;50.850;12.928;2022-07-06T11:00:00;7.85;;;1.92;;
20729;SDS011;10526;50.850;12.928;2022-07-06T11:04:30;10.20;;;1.90;;
20729;SDS011;10526;50.850;12.928;2022-07-06T11:13:25;14.40;;;2.40;;
20729;SDS011;10526;50.850;12.928;2022-07-06T11:18:10;30.27;;;4.07;;
20729;SDS011;10526;50.850;12.928;2022-07-06T11:22:35;10.35;;;1.48;;
20729;SDS011;10526;50.850;12.928;2022-07-06T11:26:59;17.15;;;2.88;;
20729;SDS011;10526;50.850;12.928;2022-07-06T11:31:22;11.57;;;1.80;;
20729;SDS011;10526;50.850;12.928;2022-07-06T11:35:45;15.90;;;2.28;;
20729;SDS011;10526;50.850;12.928;2022-07-06T11:40:07;10.00;;;1.42;;
20729;SDS011;10526;50.850;12.928;2022-07-06T11:44:30;8.90;;;1.35;;
20729;SDS011;10526;50.850;12.928;2022-07-06T11:48:54;9.15;;;1.70;;
20729;SDS011;10526;50.850;12.928;2022-07-06T11:53:21;7.13;;;1.55;;
20729;SDS011;10526;50.850;12.928;2022-07-06T11:57:44;6.75;;;1.40;;
20729;SDS011;10526;50.850;12.928;2022-07-06T12:02:15;9.73;;;1.63;;
20729;SDS011;10526;50.850;12.928;2022-07-06T12:06:38;10.80;;;2.25;;
20729;SDS011;10526;50.850;12.928;2022-07-06T12:11:03;5.22;;;1.50;;
20729;SDS011;10526;50.850;12.928;2022-07-06T12:15:29;8.32;;;1.63;;
20729;SDS011;10526;50.850;12.928;2022-07-06T12:19:54;12.60;;;1.92;;
20729;SDS011;10526;50.850;12.928;2022-07-06T12:24:23;14.77;;;1.95;;
20729;SDS011;10526;50.850;12.928;2022-07-06T12:28:59;3.15;;;1.30;;
20729;SDS011;10526;50.850;12.928;2022-07-06T12:33:27;7.90;;;1.60;;
20729;SDS011;10526;50.850;12.928;2022-07-06T12:37:55;3.38;;;1.50;;
20729;SDS011;10526;50.850;12.928;2022-07-06T12:42:19;2.67;;;1.27;;
20729;SDS011;10526;50.850;12.928;2022-07-06T12:46:42;15.05;;;2.30;;
20729;SDS011;10526;50.850;12.928;2022-07-06T12:51:05;7.97;;;1.80;;
20729;SDS011;10526;50.850;12.928;2022-07-06T12:55:28;4.55;;;1.80;;
20729;SDS011;10526;50.850;12.928;2022-07-06T13:04:15;17.67;;;2.40;;
20729;SDS011;10526;50.850;12.928;2022-07-06T13:08:37;12.55;;;2.03;;
20729;SDS011;10526;50.850;12.928;2022-07-06T13:13:00;5.72;;;1.55;;
20729;SDS011;10526;50.850;12.928;2022-07-06T13:17:22;7.10;;;1.77;;
20729;SDS011;10526;50.850;12.928;2022-07-06T13:21:44;7.72;;;1.52;;
20729;SDS011;10526;50.850;12.928;2022-07-06T13:26:06;9.95;;;1.73;;
20729;SDS011;10526;50.850;12.928;2022-07-06T13:30:29;7.28;;;1.52;;
20729;SDS011;10526;50.850;12.928;2022-07-06T13:34:50;21.30;;;2.75;;
20729;SDS011;10526;50.850;12.928;2022-07-06T13:39:12;16.60;;;2.85;;
20729;SDS011;10526;50.850;12.928;2022-07-06T13:43:35;6.45;;;1.38;;
20729;SDS011;10526;50.850;12.928;2022-07-06T13:47:57;5.28;;;1.50;;
20729;SDS011;10526;50.850;12.928;2022-07-06T13:52:20;14.25;;;1.60;;
20729;SDS011;10526;50.850;12.928;2022-07-06T13:56:42;5.28;;;1.58;;
20729;SDS011;10526;50.850;12.928;2022-07-06T14:01:04;12.20;;;2.10;;
20729;SDS011;10526;50.850;12.928;2022-07-06T14:05:27;6.20;;;1.65;;
20729;SDS011;10526;50.850;12.928;2022-07-06T14:09:51;6.05;;;1.38;;
20729;SDS011;10526;50.850;12.928;2022-07-06T14:14:13;15.80;;;2.20;;
20729;SDS011;10526;50.850;12.928;2022-07-06T14:18:36;11.80;;;1.90;;
20729;SDS011;10526;50.850;12.928;2022-07-06T14:22:58;8.40;;;2.10;;
20729;SDS011;10526;50.850;12.928;2022-07-06T14:27:20;20.77;;;2.33;;
20729;SDS011;10526;50.850;12.928;2022-07-06T14:31:42;14.30;;;2.30;;
20729;SDS011;10526;50.850;12.928;2022-07-06T14:36:05;6.32;;;1.70;;
20729;SDS011;10526;50.850;12.928;2022-07-06T14:40:28;15.75;;;1.70;;
20729;SDS011;10526;50.850;12.928;2022-07-06T14:44:50;13.77;;;2.15;;
20729;SDS011;10526;50.850;12.928;2022-07-06T14:49:13;14.77;;;1.83;;
20729;SDS011;10526;50.850;12.928;2022-07-06T14:53:41;5.90;;;1.45;;
20729;SDS011;10526;50.850;12.928;2022-07-06T14:58:03;10.63;;;1.48;;
20729;SDS011;10526;50.850;12.928;2022-07-06T15:02:25;6.73;;;1.93;;
20729;SDS011;10526;50.850;12.928;2022-07-06T15:06:47;9.30;;;1.17;;
20729;SDS011;10526;50.850;12.928;2022-07-06T15:11:16;5.45;;;1.23;;
20729;SDS011;10526;50.850;12.928;2022-07-06T15:15:38;39.15;;;5.30;;
20729;SDS011;10526;50.850;12.928;2022-07-06T15:20:19;31.65;;;4.70;;
20729;SDS011;10526;50.850;12.928;2022-07-06T15:24:43;4.47;;;1.30;;
20729;SDS011;10526;50.850;12.928;2022-07-06T15:34:46;6.53;;;1.20;;
20729;SDS011;10526;50.850;12.928;2022-07-06T15:39:09;5.97;;;1.27;;
20729;SDS011;10526;50.850;12.928;2022-07-06T15:43:32;38.65;;;4.57;;
20729;SDS011;10526;50.850;12.928;2022-07-06T15:47:55;34.33;;;3.67;;
20729;SDS011;10526;50.850;12.928;2022-07-06T15:52:17;6.93;;;1.70;;
20729;SDS011;10526;50.850;12.928;2022-07-06T15:56:40;9.93;;;1.90;;
20729;SDS011;10526;50.850;12.928;2022-07-06T16:01:02;10.57;;;1.90;;
20729;SDS011;10526;50.850;12.928;2022-07-06T16:05:24;8.43;;;2.20;;
20729;SDS011;10526;50.850;12.928;2022-07-06T16:10:07;15.95;;;2.47;;
20729;SDS011;10526;50.850;12.928;2022-07-06T16:14:29;8.18;;;1.52;;
20729;SDS011;10526;50.850;12.928;2022-07-06T16:18:52;7.78;;;1.60;;
20729;SDS011;10526;50.850;12.928;2022-07-06T16:23:14;15.93;;;2.50;;
20729;SDS011;10526;50.850;12.928;2022-07-06T16:27:36;8.43;;;1.02;;
20729;SDS011;10526;50.850;12.928;2022-07-06T16:31:59;2.78;;;1.40;;
20729;SDS011;10526;50.850;12.928;2022-07-06T16:36:22;7.20;;;1.30;;
20729;SDS011;10526;50.850;12.928;2022-07-06T16:40:44;16.40;;;1.40;;
20729;SDS011;10526;50.850;12.928;2022-07-06T16:45:06;13.32;;;1.35;;
20729;SDS011;10526;50.850;12.928;2022-07-06T16:49:29;7.72;;;2.28;;
20729;SDS011;10526;50.850;12.928;2022-07-06T16:53:51;10.95;;;2.63;;
20729;SDS011;10526;50.850;12.928;2022-07-06T16:58:14;10.65;;;3.30;;
20729;SDS011;10526;50.850;12.928;2022-07-06T17:02:36;4.63;;;1.52;;
20729;SDS011;10526;50.850;12.928;2022-07-06T17:06:59;6.43;;;1.58;;
20729;SDS011;10526;50.850;12.928;2022-07-06T17:11:21;10.73;;;3.17;;
20729;SDS011;10526;50.850;12.928;2022-07-06T17:15:43;10.10;;;3.47;;
20729;SDS011;10526;50.850;12.928;2022-07-06T17:20:12;7.28;;;1.23;;
20729;SDS011;10526;50.850;12.928;2022-07-06T17:24:34;26.92;;;2.90;;
20729;SDS011;10526;50.850;12.928;2022-07-06T17:28:56;4.68;;;1.35;;
20729;SDS011;10526;50.850;12.928;2022-07-06T17:33:18;7.85;;;1.02;;
20729;SDS011;10526;50.850;12.928;2022-07-06T17:37:40;6.78;;;1.83;;
20729;SDS011;10526;50.850;12.928;2022-07-06T17:42:03;7.38;;;1.17;;
20729;SDS011;10526;50.850;12.928;2022-07-06T17:46:25;15.57;;;1.58;;
20729;SDS011;10526;50.850;12.928;2022-07-06T17:50:47;12.43;;;2.22;;
20729;SDS011;10526;50.850;12.928;2022-07-06T17:55:09;5.88;;;1.45;;
20729;SDS011;10526;50.850;12.928;2022-07-06T17:59:32;7.85;;;1.13;;
20729;SDS011;10526;50.850;12.928;2022-07-06T18:03:54;5.68;;;1.88;;
20729;SDS011;10526;50.850;12.928;2022-07-06T18:08:16;8.32;;;1.38;;
20729;SDS011;10526;50.850;12.928;2022-07-06T18:12:38;16.90;;;1.70;;
20729;SDS011;10526;50.850;12.928;2022-07-06T18:17:00;4.88;;;1.58;;
20729;SDS011;10526;50.850;12.928;2022-07-06T18:21:23;28.77;;;2.67;;
20729;SDS011;10526;50.850;12.928;2022-07-06T18:25:45;13.50;;;1.48;;
20729;SDS011;10526;50.850;12.928;2022-07-06T18:30:07;48.13;;;5.32;;
20729;SDS011;10526;50.850;12.928;2022-07-06T18:34:30;9.32;;;1.90;;
20729;SDS011;10526;50.850;12.928;2022-07-06T18:38:52;25.85;;;3.25;;
20729;SDS011;10526;50.850;12.928;2022-07-06T18:43:14;15.30;;;3.22;;
20729;SDS011;10526;50.850;12.928;2022-07-06T18:47:40;59.47;;;4.95;;
20729;SDS011;10526;50.850;12.928;2022-07-06T18:52:02;8.52;;;1.67;;
20729;SDS011;10526;50.850;12.928;2022-07-06T18:56:24;14.65;;;2.20;;
20729;SDS011;10526;50.850;12.928;2022-07-06T19:00:46;7.22;;;1.30;;
20729;SDS011;10526;50.850;12.928;2022-07-06T19:05:10;8.38;;;1.77;;
20729;SDS011;10526;50.850;12.928;2022-07-06T19:09:32;6.15;;;1.60;;
20729;SDS011;10526;50.850;12.928;2022-07-06T19:13:54;8.18;;;1.65;;
20729;SDS011;10526;50.850;12.928;2022-07-06T19:18:16;11.02;;;1.55;;
20729;SDS011;10526;50.850;12.928;2022-07-06T19:22:39;4.28;;;1.23;;
20729;SDS011;10526;50.850;12.928;2022-07-06T19:27:01;5.32;;;1.30;;
20729;SDS011;10526;50.850;12.928;2022-07-06T19:31:25;33.88;;;4.03;;
20729;SDS011;10526;50.850;12.928;2022-07-06T19:35:47;31.17;;;3.30;;
20729;SDS011;10526;50.850;12.928;2022-07-06T19:40:10;6.68;;;1.30;;
20729;SDS011;10526;50.850;12.928;2022-07-06T19:44:32;91.32;;;9.70;;
20729;SDS011;10526;50.850;12.928;2022-07-06T19:48:55;35.33;;;3.55;;
20729;SDS011;10526;50.850;12.928;2022-07-06T19:53:19;9.35;;;1.85;;
20729;SDS011;10526;50.850;12.928;2022-07-06T19:59:16;14.25;;;2.28;;
20729;SDS011;10526;50.850;12.928;2022-07-06T20:03:37;10.88;;;2.45;;
20729;SDS011;10526;50.850;12.928;2022-07-06T20:08:00;8.77;;;1.73;;
20729;SDS011;10526;50.850;12.928;2022-07-06T20:12:22;43.42;;;5.00;;
20729;SDS011;10526;50.850;12.928;2022-07-06T20:16:44;14.20;;;2.38;;
20729;SDS011;10526;50.850;12.928;2022-07-06T20:21:06;13.93;;;1.70;;
20729;SDS011;10526;50.850;12.928;2022-07-06T20:25:28;20.70;;;2.90;;
20729;SDS011;10526;50.850;12.928;2022-07-06T20:29:52;7.72;;;1.67;;
20729;SDS011;10526;50.850;12.928;2022-07-06T20:34:15;7.65;;;1.55;;
20729;SDS011;10526;50.850;12.928;2022-07-06T20:38:37;44.67;;;4.13;;
20729;SDS011;10526;50.850;12.928;2022-07-06T20:43:00;9.40;;;2.47;;
20729;SDS011;10526;50.850;12.928;2022-07-06T20:47:43;62.50;;;6.00;;
20729;SDS011;10526;50.850;12.928;2022-07-06T20:52:05;7.13;;;1.70;;
20729;SDS011;10526;50.850;12.928;2022-07-06T20:56:27;14.80;;;2.42;;
20729;SDS011;10526;50.850;12.928;2022-07-06T21:00:50;28.45;;;3.90;;
20729;SDS011;10526;50.850;12.928;2022-07-06T21:05:12;19.30;;;2.83;;
20729;SDS011;10526;50.850;12.928;2022-07-06T21:09:34;25.92;;;3.03;;
20729;SDS011;10526;50.850;12.928;2022-07-06T21:13:56;8.95;;;2.33;;
20729;SDS011;10526;50.850;12.928;2022-07-06T21:18:19;4.93;;;1.45;;
20729;SDS011;10526;50.850;12.928;2022-07-06T21:22:41;4.80;;;1.50;;
20729;SDS011;10526;50.850;12.928;2022-07-06T21:27:03;26.90;;;2.97;;
20729;SDS011;10526;50.850;12.928;2022-07-06T21:31:26;12.40;;;2.30;;
20729;SDS011;10526;50.850;12.928;2022-07-06T21:35:48;7.40;;;1.50;;
20729;SDS011;10526;50.850;12.928;2022-07-06T21:40:11;25.55;;;3.97;;
20729;SDS011;10526;50.850;12.928;2022-07-06T21:44:33;39.47;;;4.78;;
20729;SDS011;10526;50.850;12.928;2022-07-06T21:48:56;37.80;;;3.65;;
20729;SDS011;10526;50.850;12.928;2022-07-06T21:53:18;9.10;;;1.65;;
20729;SDS011;10526;50.850;12.928;2022-07-06T21:57:40;6.72;;;1.73;;
20729;SDS011;10526;50.850;12.928;2022-07-06T22:02:02;27.50;;;3.38;;
20729;SDS011;10526;50.850;12.928;2022-07-06T22:06:27;6.03;;;1.30;;
20729;SDS011;10526;50.850;12.928;2022-07-06T22:10:49;13.18;;;1.60;;
20729;SDS011;10526;50.850;12.928;2022-07-06T22:15:11;5.55;;;1.33;;
20729;SDS011;10526;50.850;12.928;2022-07-06T22:19:33;10.52;;;1.70;;
20729;SDS011;10526;50.850;12.928;2022-07-06T22:23:55;6.75;;;1.25;;
20729;SDS011;10526;50.850;12.928;2022-07-06T22:28:18;13.88;;;2.15;;
20729;SDS011;10526;50.850;12.928;2022-07-06T22:32:40;48.25;;;4.35;;
20729;SDS011;10526;50.850;12.928;2022-07-06T22:37:03;14.85;;;1.77;;
20729;SDS011;10526;50.850;12.928;2022-07-06T22:41:33;6.65;;;1.20;;
20729;SDS011;10526;50.850;12.928;2022-07-06T22:45:57;7.25;;;1.42;;
20729;SDS011;10526;50.850;12.928;2022-07-06T22:50:20;28.45;;;3.80;;
20729;SDS011;10526;50.850;12.928;2022-07-06T22:54:41;18.00;;;2.25;;
20729;SDS011;10526;50.850;12.928;2022-07-06T22:59:03;2.50;;;1.30;;
20729;SDS011;10526;50.850;12.928;2022-07-06T23:03:26;31.50;;;4.75;;
20729;SDS011;10526;50.850;12.928;2022-07-06T23:07:49;7.80;;;1.35;;
20729;SDS011;10526;50.850;12.928;2022-07-06T23:12:11;7.35;;;1.80;;
20729;SDS011;10526;50.850;12.928;2022-07-06T23:16:34;3.25;;;1.50;;
20729;SDS011;10526;50.850;12.928;2022-07-06T23:20:57;1.90;;;1.05;;
20729;SDS011;10526;50.850;12.928;2022-07-06T23:25:19;6.22;;;1.73;;
20729;SDS011;10526;50.850;12.928;2022-07-06T23:29:42;3.92;;;1.02;;
20729;SDS011;10526;50.850;12.928;2022-07-06T23:34:04;3.92;;;1.20;;
20729;SDS011;10526;50.850;12.928;2022-07-06T23:38:26;6.28;;;1.33;;
20729;SDS011;10526;50.850;12.928;2022-07-06T23:42:48;16.65;;;2.28;;
20729;SDS011;10526;50.850;12.928;2022-07-06T23:47:10;5.38;;;1.33;;
20729;SDS011;10526;50.850;12.928;2022-07-06T23:51:33;6.47;;;1.58;;
20729;SDS011;10526;50.850;12.928;2022-07-06T23:55:55;16.98;;;2.65;;
